createdAt,value
2018-08-04T00:00:30.786Z,21.90
2018-08-04T00:02:59.464Z,21.90
2018-08-04T00:05:28.673Z,21.80
2018-08-04T00:07:57.115Z,21.70
2018-08-04T00:10:26.791Z,21.60
2018-08-04T00:12:55.450Z,21.50
2018-08-04T00:15:23.895Z,21.40
2018-08-04T00:17:52.370Z,21.40
2018-08-04T00:20:21.103Z,21.40
2018-08-04T00:22:49.560Z,21.30
2018-08-04T00:25:17.947Z,21.30
2018-08-04T00:27:46.328Z,21.30
2018-08-04T00:30:15.738Z,21.30
2018-08-04T00:32:44.464Z,21.30
2018-08-04T00:35:13.400Z,21.20
2018-08-04T00:37:41.807Z,21.20
2018-08-04T00:40:12.390Z,21.20
2018-08-04T00:42:41.344Z,21.10
2018-08-04T00:45:09.801Z,21.00
2018-08-04T00:47:38.327Z,21.00
2018-08-04T00:50:08.197Z,20.90
2018-08-04T00:52:36.730Z,20.90
2018-08-04T00:55:05.542Z,20.90
2018-08-04T00:57:34.322Z,20.80
2018-08-04T01:00:03.183Z,20.80
2018-08-04T01:02:31.992Z,20.80
2018-08-04T01:05:00.343Z,20.70
2018-08-04T01:07:29.148Z,20.70
2018-08-04T01:10:01.001Z,20.70
2018-08-04T01:12:29.532Z,20.70
2018-08-04T01:14:58.072Z,20.70
2018-08-04T01:17:26.443Z,20.70
2018-08-04T01:19:54.800Z,20.60
2018-08-04T01:22:23.451Z,20.60
2018-08-04T01:24:52.098Z,20.60
2018-08-04T01:27:20.515Z,20.60
2018-08-04T01:29:49.461Z,20.60
2018-08-04T01:32:20.353Z,20.60
2018-08-04T01:34:48.844Z,20.60
2018-08-04T01:37:17.422Z,20.50
2018-08-04T01:39:45.804Z,20.50
2018-08-04T01:42:14.152Z,20.50
2018-08-04T01:44:42.466Z,20.40
2018-08-04T01:47:10.796Z,20.40
2018-08-04T01:49:39.158Z,20.30
2018-08-04T01:52:08.079Z,20.30
2018-08-04T01:54:36.703Z,20.30
2018-08-04T01:57:05.081Z,20.20
2018-08-04T01:59:33.826Z,20.20
2018-08-04T02:02:02.121Z,20.20
2018-08-04T02:04:30.464Z,20.20
2018-08-04T02:06:58.786Z,20.10
2018-08-04T02:09:27.211Z,20.10
2018-08-04T02:11:55.923Z,20.10
2018-08-04T02:14:24.274Z,20.10
2018-08-04T02:16:53.188Z,20.00
2018-08-04T02:19:21.864Z,20.00
2018-08-04T02:21:50.418Z,20.00
2018-08-04T02:24:19.002Z,20.00
2018-08-04T02:26:48.210Z,19.90
2018-08-04T02:29:17.251Z,19.90
2018-08-04T02:31:45.595Z,19.90
2018-08-04T02:34:13.944Z,19.90
2018-08-04T02:36:42.303Z,19.90
2018-08-04T02:39:10.671Z,19.80
2018-08-04T02:41:39.651Z,19.80
2018-08-04T02:44:08.304Z,19.80
2018-08-04T02:49:05.303Z,19.70
2018-08-04T02:51:33.785Z,19.60
2018-08-04T02:54:03.210Z,19.40
2018-08-04T02:56:31.670Z,19.40
2018-08-04T02:59:00.130Z,19.40
2018-08-04T03:01:29.492Z,19.30
2018-08-04T03:03:57.882Z,19.30
2018-08-04T03:06:26.260Z,19.30
2018-08-04T03:08:54.696Z,19.30
2018-08-04T03:11:23.771Z,19.30
2018-08-04T03:13:52.278Z,19.30
2018-08-04T03:16:21.190Z,19.30
2018-08-04T03:18:49.875Z,19.20
2018-08-04T03:21:18.720Z,19.20
2018-08-04T03:23:47.327Z,19.20
2018-08-04T03:26:15.976Z,19.20
2018-08-04T03:28:44.380Z,19.20
2018-08-04T03:31:12.868Z,19.10
2018-08-04T03:33:41.286Z,19.00
2018-08-04T03:36:09.878Z,18.80
2018-08-04T03:38:38.275Z,18.80
2018-08-04T03:41:06.623Z,18.80
2018-08-04T03:43:35.279Z,18.70
2018-08-04T03:46:04.704Z,18.70
2018-08-04T03:48:33.375Z,18.70
2018-08-04T03:51:01.891Z,18.70
2018-08-04T03:53:30.241Z,18.80
2018-08-04T03:55:59.547Z,18.80
2018-08-04T03:58:27.904Z,18.80
2018-08-04T04:00:56.349Z,18.80
2018-08-04T04:03:24.824Z,18.70
2018-08-04T04:05:53.367Z,18.80
2018-08-04T04:08:22.615Z,18.80
2018-08-04T04:10:50.985Z,18.80
2018-08-04T04:13:19.498Z,18.80
2018-08-04T04:15:47.872Z,18.80
2018-08-04T04:18:16.226Z,18.90
2018-08-04T04:20:44.610Z,18.90
2018-08-04T04:23:13.095Z,18.90
2018-08-04T04:25:41.475Z,18.90
2018-08-04T04:28:09.839Z,18.90
2018-08-04T04:30:38.180Z,18.90
2018-08-04T04:33:06.530Z,18.90
2018-08-04T04:35:34.876Z,19.00
2018-08-04T04:38:03.242Z,19.10
2018-08-04T04:40:31.735Z,19.10
2018-08-04T04:43:00.151Z,19.20
2018-08-04T04:45:28.871Z,19.30
2018-08-04T04:47:57.206Z,19.50
2018-08-04T04:50:25.942Z,19.50
2018-08-04T04:52:54.371Z,19.60
2018-08-04T04:55:22.819Z,19.70
2018-08-04T04:57:51.288Z,19.80
2018-08-04T05:00:19.648Z,19.90
2018-08-04T05:02:48.003Z,20.00
2018-08-04T05:05:16.383Z,20.10
2018-08-04T05:07:44.763Z,20.20
2018-08-04T05:10:13.132Z,20.40
2018-08-04T05:12:41.461Z,20.50
2018-08-04T05:15:09.883Z,20.50
2018-08-04T05:17:38.280Z,20.50
2018-08-04T05:20:07.249Z,20.50
2018-08-04T05:22:35.636Z,20.50
2018-08-04T05:25:04.071Z,20.50
2018-08-04T05:27:32.405Z,20.50
2018-08-04T05:30:00.834Z,20.50
2018-08-04T05:32:29.168Z,20.50
2018-08-04T05:34:57.532Z,20.50
2018-08-04T05:37:25.949Z,20.50
2018-08-04T05:39:54.333Z,20.60
2018-08-04T05:42:24.191Z,20.60
2018-08-04T05:44:52.607Z,20.70
2018-08-04T05:47:20.945Z,20.70
2018-08-04T05:49:49.402Z,20.80
2018-08-04T05:52:17.731Z,20.80
2018-08-04T05:54:46.351Z,20.80
2018-08-04T05:57:14.811Z,20.90
2018-08-04T05:59:43.228Z,20.90
2018-08-04T06:02:11.645Z,21.00
2018-08-04T06:04:40.029Z,21.00
2018-08-04T06:07:08.446Z,21.10
2018-08-04T06:09:37.031Z,21.20
2018-08-04T06:12:05.594Z,21.20
2018-08-04T06:14:33.966Z,21.30
2018-08-04T06:17:02.346Z,21.30
2018-08-04T06:19:30.750Z,21.40
2018-08-04T06:21:59.139Z,21.50
2018-08-04T06:24:27.526Z,21.70
2018-08-04T06:26:55.872Z,21.80
2018-08-04T06:29:24.267Z,21.90
2018-08-04T06:31:52.688Z,22.20
2018-08-04T06:34:21.076Z,22.40
2018-08-04T06:36:49.429Z,22.60
2018-08-04T06:39:17.796Z,22.80
2018-08-04T06:41:46.593Z,23.10
2018-08-04T06:44:14.999Z,23.30
2018-08-04T06:46:43.397Z,23.40
2018-08-04T06:49:11.799Z,23.70
2018-08-04T06:51:40.267Z,24.20
2018-08-04T06:54:08.683Z,24.60
2018-08-04T06:56:37.003Z,24.90
2018-08-04T06:59:05.423Z,25.10
2018-08-04T07:01:33.783Z,25.30
2018-08-04T07:04:02.169Z,25.20
2018-08-04T07:06:30.871Z,25.30
2018-08-04T07:08:59.248Z,25.50
2018-08-04T07:11:27.597Z,25.60
2018-08-04T07:13:55.988Z,25.70
2018-08-04T07:16:24.442Z,25.80
2018-08-04T07:18:52.958Z,25.90
2018-08-04T07:21:21.369Z,25.90
2018-08-04T07:23:49.776Z,26.10
2018-08-04T07:26:18.157Z,26.30
2018-08-04T07:28:47.449Z,26.60
2018-08-04T07:31:15.903Z,26.90
2018-08-04T07:33:44.286Z,27.20
2018-08-04T07:36:12.700Z,27.30
2018-08-04T07:38:41.127Z,27.40
2018-08-04T07:41:09.556Z,27.40
2018-08-04T07:43:38.209Z,27.30
2018-08-04T07:46:06.668Z,27.50
2018-08-04T07:48:35.071Z,27.60
2018-08-04T07:51:03.492Z,27.70
2018-08-04T07:53:31.878Z,27.80
2018-08-04T07:56:00.306Z,27.90
2018-08-04T07:58:28.711Z,27.80
2018-08-04T08:00:57.120Z,28.40
2018-08-04T08:03:25.599Z,28.70
2018-08-04T08:05:54.083Z,29.10
2018-08-04T08:08:22.492Z,29.60
2018-08-04T08:10:50.991Z,29.80
2018-08-04T08:13:19.676Z,30.00
2018-08-04T08:15:48.104Z,30.00
2018-08-04T08:18:16.580Z,30.20
2018-08-04T08:20:45.199Z,30.30
2018-08-04T08:23:13.583Z,30.40
2018-08-04T08:25:51.939Z,30.60
2018-08-04T08:28:20.454Z,30.40
2018-08-04T08:30:48.891Z,30.10
2018-08-04T08:33:17.315Z,30.20
2018-08-04T08:35:45.800Z,30.30
2018-08-04T08:38:14.193Z,30.20
2018-08-04T08:40:42.579Z,30.50
2018-08-04T08:43:11.022Z,30.70
2018-08-04T08:45:39.527Z,30.70
2018-08-04T08:48:08.176Z,30.70
2018-08-04T08:50:37.546Z,31.10
2018-08-04T08:53:05.984Z,31.20
2018-08-04T08:55:34.342Z,31.50
2018-08-04T08:58:03.941Z,31.70
2018-08-04T09:00:32.754Z,32.10
2018-08-04T09:03:01.203Z,31.80
2018-08-04T09:05:29.596Z,31.80
2018-08-04T09:07:58.032Z,32.10
2018-08-04T09:10:26.393Z,32.10
2018-08-04T09:12:55.016Z,32.40
2018-08-04T09:15:23.376Z,32.50
2018-08-04T09:17:51.791Z,32.60
2018-08-04T09:20:20.153Z,32.70
2018-08-04T09:22:48.508Z,32.90
2018-08-04T09:25:16.845Z,33.00
2018-08-04T09:27:47.815Z,33.10
2018-08-04T09:30:16.200Z,33.10
2018-08-04T09:35:14.256Z,33.20
2018-08-04T09:37:42.659Z,33.30
2018-08-04T09:40:13.069Z,33.30
2018-08-04T09:42:41.699Z,33.50
2018-08-04T09:45:10.672Z,33.60
2018-08-04T09:47:39.939Z,33.90
2018-08-04T09:50:10.048Z,34.30
2018-08-04T09:52:38.518Z,34.40
2018-08-04T09:55:07.883Z,34.50
2018-08-04T09:57:36.439Z,34.60
2018-08-04T10:00:07.722Z,34.80
2018-08-04T10:02:36.088Z,34.90
2018-08-04T10:05:04.561Z,34.80
2018-08-04T10:07:32.936Z,35.00
2018-08-04T10:10:01.379Z,34.90
2018-08-04T10:12:29.857Z,34.90
2018-08-04T10:14:58.289Z,35.00
2018-08-04T10:17:26.696Z,34.70
2018-08-04T10:19:55.103Z,35.10
2018-08-04T10:22:23.457Z,35.20
2018-08-04T10:24:51.864Z,35.20
2018-08-04T10:27:20.291Z,35.60
2018-08-04T10:29:48.726Z,35.70
2018-08-04T10:32:17.393Z,35.80
2018-08-04T10:34:45.521Z,35.90
2018-08-04T10:37:13.943Z,35.70
2018-08-04T10:39:42.334Z,35.70
2018-08-04T10:42:10.705Z,35.80
2018-08-04T10:44:39.025Z,36.30
2018-08-04T10:47:07.452Z,36.70
2018-08-04T10:49:35.876Z,36.20
2018-08-04T10:52:05.324Z,36.30
2018-08-04T10:54:33.853Z,36.20
2018-08-04T10:57:02.331Z,36.20
2018-08-04T10:59:30.966Z,36.40
2018-08-04T11:01:59.638Z,36.60
2018-08-04T11:04:28.085Z,36.80
2018-08-04T11:06:56.633Z,36.90
2018-08-04T11:09:25.060Z,36.90
2018-08-04T11:11:53.434Z,37.00
2018-08-04T11:14:21.965Z,36.80
2018-08-04T11:16:50.376Z,36.90
2018-08-04T11:19:18.916Z,37.10
2018-08-04T11:21:47.565Z,37.00
2018-08-04T11:24:16.054Z,37.10
2018-08-04T11:26:44.461Z,37.20
2018-08-04T11:29:12.887Z,37.10
2018-08-04T11:31:41.340Z,37.20
2018-08-04T11:34:09.993Z,37.20
2018-08-04T11:36:38.384Z,37.40
2018-08-04T11:39:08.592Z,37.00
2018-08-04T11:41:37.066Z,37.10
2018-08-04T11:44:06.172Z,37.20
2018-08-04T11:46:35.226Z,37.50
2018-08-04T11:49:03.645Z,37.70
2018-08-04T11:51:32.059Z,38.00
2018-08-04T11:54:00.471Z,37.90
2018-08-04T11:56:28.868Z,38.00
2018-08-04T11:58:57.253Z,38.40
2018-08-04T12:01:25.635Z,38.30
2018-08-04T12:03:54.144Z,37.70
2018-08-04T12:08:50.743Z,37.50
2018-08-04T12:11:19.113Z,37.60
2018-08-04T12:13:47.559Z,37.90
2018-08-04T12:16:15.944Z,37.90
2018-08-04T12:18:44.473Z,38.20
2018-08-04T12:21:12.940Z,38.60
2018-08-04T12:23:41.625Z,38.10
2018-08-04T12:26:10.155Z,37.90
2018-08-04T12:28:38.745Z,37.80
2018-08-04T12:31:07.246Z,37.60
2018-08-04T12:33:35.871Z,37.60
2018-08-04T12:36:04.803Z,37.50
2018-08-04T12:38:33.212Z,37.70
2018-08-04T12:41:01.756Z,37.60
2018-08-04T12:43:30.286Z,37.10
2018-08-04T12:45:58.723Z,37.40
2018-08-04T12:48:29.658Z,37.70
2018-08-04T12:50:59.845Z,38.10
2018-08-04T12:53:28.339Z,37.50
2018-08-04T12:55:56.864Z,36.80
2018-08-04T12:58:25.289Z,37.40
2018-08-04T13:00:53.928Z,37.40
2018-08-04T13:03:22.448Z,37.60
2018-08-04T13:05:51.472Z,37.30
2018-08-04T13:08:19.829Z,37.50
2018-08-04T13:10:49.550Z,37.40
2018-08-04T13:13:18.105Z,37.70
2018-08-04T13:15:46.528Z,37.90
2018-08-04T13:18:14.861Z,37.90
2018-08-04T13:20:43.307Z,37.90
2018-08-04T13:23:11.721Z,38.00
2018-08-04T13:25:40.231Z,37.90
2018-08-04T13:28:08.667Z,38.30
2018-08-04T13:30:37.491Z,37.80
2018-08-04T13:33:07.244Z,37.60
2018-08-04T13:35:36.048Z,37.10
2018-08-04T13:38:04.388Z,37.40
2018-08-04T13:40:33.413Z,37.20
2018-08-04T13:43:01.825Z,37.60
2018-08-04T13:45:30.322Z,37.60
2018-08-04T13:47:58.793Z,37.20
2018-08-04T13:50:27.183Z,37.10
2018-08-04T13:52:55.562Z,36.90
2018-08-04T13:55:23.952Z,36.80
2018-08-04T13:57:52.511Z,36.80
2018-08-04T14:00:20.915Z,37.00
2018-08-04T14:02:49.267Z,37.30
2018-08-04T14:05:17.651Z,37.30
2018-08-04T14:07:46.040Z,37.20
2018-08-04T14:10:14.654Z,37.00
2018-08-04T14:12:43.222Z,37.10
2018-08-04T14:15:11.830Z,37.20
2018-08-04T14:17:40.194Z,37.10
2018-08-04T14:20:08.700Z,37.50
2018-08-04T14:22:37.563Z,37.30
2018-08-04T14:25:06.166Z,37.40
2018-08-04T14:27:34.514Z,37.70
2018-08-04T14:30:02.925Z,37.70
2018-08-04T14:32:31.259Z,37.80
2018-08-04T14:34:59.667Z,37.50
2018-08-04T14:37:28.050Z,37.00
2018-08-04T14:39:56.475Z,36.70
2018-08-04T14:42:24.856Z,36.40
2018-08-04T14:44:53.206Z,36.60
2018-08-04T14:47:21.578Z,36.70
2018-08-04T14:49:49.929Z,37.00
2018-08-04T14:52:18.276Z,37.40
2018-08-04T14:54:46.611Z,37.90
2018-08-04T14:57:14.994Z,38.40
2018-08-04T14:59:43.513Z,38.70
2018-08-04T15:02:11.915Z,38.70
2018-08-04T15:04:40.309Z,38.70
2018-08-04T15:07:08.673Z,38.60
2018-08-04T15:09:37.256Z,38.00
2018-08-04T15:12:05.616Z,37.30
2018-08-04T15:14:33.993Z,36.80
2018-08-04T15:17:02.372Z,36.80
2018-08-04T15:19:30.754Z,37.10
2018-08-04T15:21:59.119Z,37.20
2018-08-04T15:24:27.505Z,37.40
2018-08-04T15:26:55.936Z,36.90
2018-08-04T15:29:24.320Z,36.60
2018-08-04T15:31:52.737Z,36.70
2018-08-04T15:34:21.070Z,36.60
2018-08-04T15:36:49.415Z,36.40
2018-08-04T15:39:17.825Z,36.10
2018-08-04T15:41:46.195Z,36.00
2018-08-04T15:44:14.544Z,35.80
2018-08-04T15:46:42.876Z,35.80
2018-08-04T15:49:11.260Z,35.90
2018-08-04T15:51:39.646Z,36.10
2018-08-04T15:54:07.985Z,36.40
2018-08-04T15:56:36.330Z,36.50
2018-08-04T15:59:04.711Z,36.20
2018-08-04T16:01:33.055Z,35.70
2018-08-04T16:04:01.398Z,35.50
2018-08-04T16:06:29.784Z,35.20
2018-08-04T16:08:58.186Z,34.80
2018-08-04T16:11:26.545Z,34.60
2018-08-04T16:13:54.883Z,34.30
2018-08-04T16:16:23.220Z,34.10
2018-08-04T16:18:51.640Z,33.80
2018-08-04T16:21:19.996Z,33.70
2018-08-04T16:23:48.376Z,33.50
2018-08-04T16:26:16.708Z,33.30
2018-08-04T16:28:45.172Z,33.20
2018-08-04T16:31:13.488Z,33.00
2018-08-04T16:33:41.894Z,32.90
2018-08-04T16:36:10.305Z,32.90
2018-08-04T16:38:38.733Z,32.80
2018-08-04T16:41:07.227Z,32.70
2018-08-04T16:43:35.620Z,32.60
2018-08-04T16:46:03.996Z,32.50
2018-08-04T16:48:32.342Z,32.20
2018-08-04T16:51:00.667Z,32.00
2018-08-04T16:53:29.037Z,31.90
2018-08-04T16:55:57.428Z,31.80
2018-08-04T16:58:25.775Z,31.70
2018-08-04T17:00:54.108Z,31.60
2018-08-04T17:03:22.528Z,31.60
2018-08-04T17:05:51.016Z,31.60
2018-08-04T17:08:19.495Z,31.50
2018-08-04T17:10:47.827Z,31.50
2018-08-04T17:13:16.176Z,31.50
2018-08-04T17:15:44.543Z,31.40
2018-08-04T17:18:12.970Z,31.30
2018-08-04T17:20:42.079Z,31.20
2018-08-04T17:23:10.459Z,31.10
2018-08-04T17:25:38.896Z,31.00
2018-08-04T17:28:07.406Z,30.90
2018-08-04T17:30:36.558Z,30.80
2018-08-04T17:33:05.298Z,30.70
2018-08-04T17:35:33.747Z,30.50
2018-08-04T17:38:02.220Z,30.50
2018-08-04T17:40:30.659Z,30.40
2018-08-04T17:42:59.062Z,30.20
2018-08-04T17:45:28.270Z,30.10
2018-08-04T17:47:57.679Z,30.10
2018-08-04T17:50:26.116Z,30.00
2018-08-04T17:52:54.657Z,30.00
2018-08-04T17:55:23.967Z,29.90
2018-08-04T17:57:52.416Z,29.90
2018-08-04T18:00:20.900Z,29.70
2018-08-04T18:02:49.396Z,29.60
2018-08-04T18:05:17.756Z,29.50
2018-08-04T18:07:46.884Z,29.40
2018-08-04T18:10:15.810Z,29.30
2018-08-04T18:12:44.188Z,29.20
2018-08-04T18:15:12.600Z,29.10
2018-08-04T18:17:40.981Z,28.90
2018-08-04T18:20:09.369Z,28.80
2018-08-04T18:22:37.740Z,28.70
2018-08-04T18:25:06.589Z,28.70
2018-08-04T18:27:35.088Z,28.60
2018-08-04T18:30:03.714Z,28.50
2018-08-04T18:32:32.044Z,28.40
2018-08-04T18:35:00.452Z,28.30
2018-08-04T18:37:28.843Z,28.20
2018-08-04T18:39:57.427Z,28.10
2018-08-04T18:42:25.784Z,28.00
2018-08-04T18:44:54.598Z,27.90
2018-08-04T18:47:23.056Z,27.80
2018-08-04T18:49:51.475Z,27.70
2018-08-04T18:52:19.775Z,27.60
2018-08-04T18:54:48.092Z,27.50
2018-08-04T18:57:16.472Z,27.40
2018-08-04T18:59:44.829Z,27.30
2018-08-04T19:02:13.676Z,27.20
2018-08-04T19:04:42.146Z,27.10
2018-08-04T19:07:10.582Z,27.00
2018-08-04T19:09:38.914Z,26.90
2018-08-04T19:12:07.354Z,26.90
2018-08-04T19:14:35.845Z,26.80
2018-08-04T19:17:04.206Z,26.70
2018-08-04T19:19:32.736Z,26.70
2018-08-04T19:22:01.148Z,26.60
2018-08-04T19:24:29.563Z,26.60
2018-08-04T19:26:57.956Z,26.50
2018-08-04T19:29:26.345Z,26.50
2018-08-04T19:31:54.794Z,26.30
2018-08-04T19:34:23.398Z,26.30
2018-08-04T19:36:51.876Z,26.20
2018-08-04T19:39:20.716Z,26.10
2018-08-04T19:41:49.125Z,26.00
2018-08-04T19:44:17.566Z,26.00
2018-08-04T19:46:46.079Z,25.90
2018-08-04T19:49:14.572Z,25.80
2018-08-04T19:51:42.940Z,25.80
2018-08-04T19:54:11.455Z,25.70
2018-08-04T19:56:39.908Z,25.60
2018-08-04T19:59:08.414Z,25.50
2018-08-04T20:01:36.973Z,25.40
2018-08-04T20:04:05.389Z,25.40
2018-08-04T20:06:33.812Z,25.30
2018-08-04T20:09:02.168Z,25.20
2018-08-04T20:11:30.686Z,25.10
2018-08-04T20:13:59.102Z,25.10
2018-08-04T20:16:27.775Z,25.00
2018-08-04T20:18:56.418Z,25.00
2018-08-04T20:21:24.891Z,24.90
2018-08-04T20:23:53.267Z,24.90
2018-08-04T20:26:21.942Z,24.80
2018-08-04T20:28:50.566Z,24.70
2018-08-04T20:31:19.028Z,24.60
2018-08-04T20:33:47.358Z,24.60
2018-08-04T20:36:15.751Z,24.50
2018-08-04T20:38:44.223Z,24.40
2018-08-04T20:41:12.736Z,24.30
2018-08-04T20:43:41.175Z,24.20
2018-08-04T20:46:09.653Z,24.10
2018-08-04T20:48:38.059Z,24.10
2018-08-04T20:51:06.970Z,24.00
2018-08-04T20:53:35.348Z,24.00
2018-08-04T20:56:03.774Z,23.90
2018-08-04T20:58:32.194Z,23.90
2018-08-04T21:01:11.898Z,23.90
2018-08-04T21:03:40.344Z,23.80
2018-08-04T21:06:08.721Z,23.70
2018-08-04T21:08:37.079Z,23.70
2018-08-04T21:11:05.466Z,23.60
2018-08-04T21:13:33.916Z,23.50
2018-08-04T21:16:03.148Z,23.40
2018-08-04T21:18:31.548Z,23.30
2018-08-04T21:21:00.376Z,23.30
2018-08-04T21:23:28.786Z,23.20
2018-08-04T21:25:57.160Z,23.10
2018-08-04T21:28:25.516Z,23.00
2018-08-04T21:30:53.897Z,23.00
2018-08-04T21:33:22.362Z,22.90
2018-08-04T21:35:50.897Z,22.90
2018-08-04T21:38:19.277Z,22.90
2018-08-04T21:40:47.762Z,22.80
2018-08-04T21:43:16.267Z,22.70
2018-08-04T21:45:44.680Z,22.60
2018-08-04T21:48:13.123Z,22.60
2018-08-04T21:50:41.611Z,22.50
2018-08-04T21:53:10.183Z,22.50
2018-08-04T21:55:38.607Z,22.40
2018-08-04T21:58:07.077Z,22.30
2018-08-04T22:00:39.407Z,22.30
2018-08-04T22:03:08.826Z,22.20
2018-08-04T22:05:38.888Z,22.20
2018-08-04T22:08:18.968Z,22.10
2018-08-04T22:10:47.371Z,22.10
2018-08-04T22:13:16.071Z,22.00
2018-08-04T22:15:44.481Z,22.00
2018-08-04T22:18:12.874Z,21.90
2018-08-04T22:20:41.293Z,21.90
2018-08-04T22:23:09.648Z,21.80
2018-08-04T22:25:38.071Z,21.80
2018-08-04T22:28:06.606Z,21.70
2018-08-04T22:30:34.976Z,21.70
2018-08-04T22:33:03.334Z,21.70
2018-08-04T22:35:31.799Z,21.60
2018-08-04T22:38:00.152Z,21.60
2018-08-04T22:40:28.621Z,21.60
2018-08-04T22:42:57.083Z,21.50
2018-08-04T22:45:47.843Z,21.50
2018-08-04T22:48:16.208Z,21.40
2018-08-04T22:50:44.777Z,21.40
2018-08-04T22:53:13.163Z,21.40
2018-08-04T22:55:42.335Z,21.40
2018-08-04T22:58:11.145Z,21.40
2018-08-04T23:00:40.122Z,21.40
2018-08-04T23:03:08.544Z,21.30
2018-08-04T23:05:37.625Z,21.30
2018-08-04T23:08:06.244Z,21.30
2018-08-04T23:10:34.814Z,21.20
2018-08-04T23:13:03.160Z,21.20
2018-08-04T23:15:31.537Z,21.20
2018-08-04T23:17:59.886Z,21.10
2018-08-04T23:20:28.630Z,21.10
2018-08-04T23:22:57.131Z,21.10
2018-08-04T23:25:25.517Z,21.10
2018-08-04T23:27:53.834Z,21.10
2018-08-04T23:30:22.556Z,21.00
2018-08-04T23:32:51.931Z,21.00
2018-08-04T23:35:20.846Z,21.00
2018-08-04T23:37:49.456Z,20.90
2018-08-04T23:40:17.946Z,20.90
2018-08-04T23:42:46.424Z,20.90
2018-08-04T23:45:14.907Z,20.80
2018-08-04T23:47:43.407Z,20.80
2018-08-04T23:50:11.877Z,20.70
2018-08-04T23:52:40.310Z,20.70
2018-08-04T23:55:08.617Z,20.70
2018-08-04T23:57:36.968Z,20.60
